Clones, Ireland
Current Conditions -  °F | °C
As of 7:50 AM on Friday 19 Dec 2014 (Local Time) from EGAA Reporting Station
Few Clouds Few Clouds  
Wind Chill: 30°   Ceiling: Unl
Heat Index: 39°   Visibility: 6mi
Dew Point: 37°   Wind: 17mph
Humidity: 93%   Direction: 260°W
Pressure: 29.71"   Gusts: NA
Location:  54.19°N, 7.24°W
Report Text: EGAA 190650Z 26015KT 9999 FEW015 04/03 Q1006
Loading
Personal Weather Stations






























Interactive Weather Map New forecast layout! Learn more

10-Day Weather Forecast

Advertisements
Track Severe Weather on mobile